sensor_id;sensor_type;location;lat;lon;timestamp;temperature;humidity
6443;DHT22;3254;47.372;8.512;2023-02-11T00:01:12;-2.00;8.80
6443;DHT22;3254;47.372;8.512;2023-02-11T00:03:41;-1.90;8.10
6443;DHT22;3254;47.372;8.512;2023-02-11T00:06:07;-1.90;6.30
6443;DHT22;3254;47.372;8.512;2023-02-11T00:08:37;-2.00;6.70
6443;DHT22;3254;47.372;8.512;2023-02-11T00:11:04;-2.00;6.00
6443;DHT22;3254;47.372;8.512;2023-02-11T00:13:30;-2.00;6.90
6443;DHT22;3254;47.372;8.512;2023-02-11T00:15:56;-2.00;6.90
6443;DHT22;3254;47.372;8.512;2023-02-11T00:18:22;-2.10;6.60
6443;DHT22;3254;47.372;8.512;2023-02-11T00:20:49;-2.20;7.60
6443;DHT22;3254;47.372;8.512;2023-02-11T00:23:14;-2.20;8.30
6443;DHT22;3254;47.372;8.512;2023-02-11T00:25:41;-2.20;8.90
6443;DHT22;3254;47.372;8.512;2023-02-11T00:28:11;-2.30;9.60
6443;DHT22;3254;47.372;8.512;2023-02-11T00:30:37;-2.20;11.90
6443;DHT22;3254;47.372;8.512;2023-02-11T00:33:06;-2.20;12.40
6443;DHT22;3254;47.372;8.512;2023-02-11T00:35:32;-2.10;11.60
6443;DHT22;3254;47.372;8.512;2023-02-11T00:37:57;-2.20;10.60
6443;DHT22;3254;47.372;8.512;2023-02-11T00:40:23;-2.10;11.10
6443;DHT22;3254;47.372;8.512;2023-02-11T00:42:49;-2.10;11.60
6443;DHT22;3254;47.372;8.512;2023-02-11T00:45:14;-2.30;10.80
6443;DHT22;3254;47.372;8.512;2023-02-11T00:47:41;-2.30;12.50
6443;DHT22;3254;47.372;8.512;2023-02-11T00:50:07;-2.30;13.50
6443;DHT22;3254;47.372;8.512;2023-02-11T00:52:33;-2.30;13.30
6443;DHT22;3254;47.372;8.512;2023-02-11T00:54:59;-2.20;13.00
6443;DHT22;3254;47.372;8.512;2023-02-11T00:57:26;-2.30;12.10
6443;DHT22;3254;47.372;8.512;2023-02-11T00:59:51;-2.40;12.30
6443;DHT22;3254;47.372;8.512;2023-02-11T01:02:18;-2.30;14.10
6443;DHT22;3254;47.372;8.512;2023-02-11T01:04:44;-2.30;14.40
6443;DHT22;3254;47.372;8.512;2023-02-11T01:07:12;-2.30;13.90
6443;DHT22;3254;47.372;8.512;2023-02-11T01:09:57;-2.30;14.30
6443;DHT22;3254;47.372;8.512;2023-02-11T01:12:23;-2.30;15.20
6443;DHT22;3254;47.372;8.512;2023-02-11T01:14:49;-2.20;15.00
6443;DHT22;3254;47.372;8.512;2023-02-11T01:17:14;-2.20;15.30
6443;DHT22;3254;47.372;8.512;2023-02-11T01:19:40;-2.20;15.80
6443;DHT22;3254;47.372;8.512;2023-02-11T01:22:06;-2.20;16.50
6443;DHT22;3254;47.372;8.512;2023-02-11T01:24:32;-2.30;15.80
6443;DHT22;3254;47.372;8.512;2023-02-11T01:26:58;-2.20;17.30
6443;DHT22;3254;47.372;8.512;2023-02-11T01:29:23;-2.20;18.50
6443;DHT22;3254;47.372;8.512;2023-02-11T01:31:49;-2.30;18.70
6443;DHT22;3254;47.372;8.512;2023-02-11T01:34:15;-2.20;18.20
6443;DHT22;3254;47.372;8.512;2023-02-11T01:36:42;-2.20;17.90
6443;DHT22;3254;47.372;8.512;2023-02-11T01:39:09;-2.20;17.40
6443;DHT22;3254;47.372;8.512;2023-02-11T01:41:36;-2.10;17.50
6443;DHT22;3254;47.372;8.512;2023-02-11T01:44:26;-2.20;16.60
6443;DHT22;3254;47.372;8.512;2023-02-11T01:46:52;-2.30;16.60
6443;DHT22;3254;47.372;8.512;2023-02-11T01:49:24;-2.40;18.20
6443;DHT22;3254;47.372;8.512;2023-02-11T01:54:29;-2.40;18.60
6443;DHT22;3254;47.372;8.512;2023-02-11T01:57:16;-2.40;21.00
6443;DHT22;3254;47.372;8.512;2023-02-11T02:02:42;-2.40;22.70
6443;DHT22;3254;47.372;8.512;2023-02-11T02:10:56;-2.30;22.60
6443;DHT22;3254;47.372;8.512;2023-02-11T02:13:31;-2.30;22.20
6443;DHT22;3254;47.372;8.512;2023-02-11T02:16:02;-2.30;20.30
6443;DHT22;3254;47.372;8.512;2023-02-11T02:21:44;-2.40;20.00
6443;DHT22;3254;47.372;8.512;2023-02-11T02:35:34;-2.70;25.10
6443;DHT22;3254;47.372;8.512;2023-02-11T02:38:22;-2.60;26.30
6443;DHT22;3254;47.372;8.512;2023-02-11T02:41:14;-2.60;25.80
6443;DHT22;3254;47.372;8.512;2023-02-11T02:43:44;-2.50;25.40
6443;DHT22;3254;47.372;8.512;2023-02-11T02:48:42;-2.50;22.60
6443;DHT22;3254;47.372;8.512;2023-02-11T02:59:43;-2.60;22.50
6443;DHT22;3254;47.372;8.512;2023-02-11T03:02:36;-2.60;22.10
6443;DHT22;3254;47.372;8.512;2023-02-11T03:05:22;-2.70;22.40
6443;DHT22;3254;47.372;8.512;2023-02-11T03:08:00;-2.80;22.70
6443;DHT22;3254;47.372;8.512;2023-02-11T03:10:49;-2.80;23.40
6443;DHT22;3254;47.372;8.512;2023-02-11T03:13:19;-2.90;24.60
6443;DHT22;3254;47.372;8.512;2023-02-11T03:15:47;-2.90;26.70
6443;DHT22;3254;47.372;8.512;2023-02-11T03:18:17;-2.90;27.30
6443;DHT22;3254;47.372;8.512;2023-02-11T03:20:45;-2.90;28.50
6443;DHT22;3254;47.372;8.512;2023-02-11T03:23:29;-2.90;28.40
6443;DHT22;3254;47.372;8.512;2023-02-11T03:26:04;-2.80;28.50
6443;DHT22;3254;47.372;8.512;2023-02-11T03:28:54;-2.80;29.20
6443;DHT22;3254;47.372;8.512;2023-02-11T03:39:53;-2.80;29.00
6443;DHT22;3254;47.372;8.512;2023-02-11T03:42:23;-2.90;28.90
6443;DHT22;3254;47.372;8.512;2023-02-11T03:45:07;-2.90;29.60
6443;DHT22;3254;47.372;8.512;2023-02-11T03:47:36;-2.90;31.00
6443;DHT22;3254;47.372;8.512;2023-02-11T03:50:06;-2.90;33.20
6443;DHT22;3254;47.372;8.512;2023-02-11T03:52:36;-2.90;33.50
6443;DHT22;3254;47.372;8.512;2023-02-11T03:55:08;-2.80;34.80
6443;DHT22;3254;47.372;8.512;2023-02-11T03:57:35;-2.70;33.40
6443;DHT22;3254;47.372;8.512;2023-02-11T04:00:03;-2.80;31.00
6443;DHT22;3254;47.372;8.512;2023-02-11T04:02:32;-2.80;30.50
6443;DHT22;3254;47.372;8.512;2023-02-11T04:04:58;-2.80;31.50
6443;DHT22;3254;47.372;8.512;2023-02-11T04:07:24;-2.90;30.10
6443;DHT22;3254;47.372;8.512;2023-02-11T04:09:50;-2.90;34.40
6443;DHT22;3254;47.372;8.512;2023-02-11T04:12:16;-2.90;35.70
6443;DHT22;3254;47.372;8.512;2023-02-11T04:14:42;-2.90;35.90
6443;DHT22;3254;47.372;8.512;2023-02-11T04:17:07;-2.90;36.70
6443;DHT22;3254;47.372;8.512;2023-02-11T04:19:33;-2.90;36.00
6443;DHT22;3254;47.372;8.512;2023-02-11T04:21:59;-2.90;37.30
6443;DHT22;3254;47.372;8.512;2023-02-11T04:24:25;-2.80;37.50
6443;DHT22;3254;47.372;8.512;2023-02-11T04:26:54;-2.80;36.50
6443;DHT22;3254;47.372;8.512;2023-02-11T04:29:20;-2.70;35.80
6443;DHT22;3254;47.372;8.512;2023-02-11T04:31:45;-2.70;34.40
6443;DHT22;3254;47.372;8.512;2023-02-11T04:34:11;-2.70;32.50
6443;DHT22;3254;47.372;8.512;2023-02-11T04:36:37;-2.70;31.90
6443;DHT22;3254;47.372;8.512;2023-02-11T04:39:03;-2.80;31.10
6443;DHT22;3254;47.372;8.512;2023-02-11T04:41:30;-2.90;31.20
6443;DHT22;3254;47.372;8.512;2023-02-11T04:43:56;-2.80;33.30
6443;DHT22;3254;47.372;8.512;2023-02-11T04:46:21;-2.80;34.90
6443;DHT22;3254;47.372;8.512;2023-02-11T04:48:47;-2.80;35.40
6443;DHT22;3254;47.372;8.512;2023-02-11T04:51:13;-2.80;34.50
6443;DHT22;3254;47.372;8.512;2023-02-11T04:53:39;-2.80;33.10
6443;DHT22;3254;47.372;8.512;2023-02-11T04:56:05;-2.90;34.30
6443;DHT22;3254;47.372;8.512;2023-02-11T04:58:31;-2.90;35.00
6443;DHT22;3254;47.372;8.512;2023-02-11T05:01:05;-2.90;35.10
6443;DHT22;3254;47.372;8.512;2023-02-11T05:03:31;-2.90;35.80
6443;DHT22;3254;47.372;8.512;2023-02-11T05:05:57;-2.90;36.50
6443;DHT22;3254;47.372;8.512;2023-02-11T05:08:22;-2.90;34.90
6443;DHT22;3254;47.372;8.512;2023-02-11T05:10:49;-3.00;36.60
6443;DHT22;3254;47.372;8.512;2023-02-11T05:13:16;-2.90;36.50
6443;DHT22;3254;47.372;8.512;2023-02-11T05:15:42;-3.00;35.20
6443;DHT22;3254;47.372;8.512;2023-02-11T05:18:08;-3.00;35.40
6443;DHT22;3254;47.372;8.512;2023-02-11T05:20:37;-3.10;36.10
6443;DHT22;3254;47.372;8.512;2023-02-11T05:23:03;-3.10;37.30
6443;DHT22;3254;47.372;8.512;2023-02-11T05:25:29;-3.10;38.30
6443;DHT22;3254;47.372;8.512;2023-02-11T05:27:54;-3.10;38.70
6443;DHT22;3254;47.372;8.512;2023-02-11T05:30:20;-3.00;39.40
6443;DHT22;3254;47.372;8.512;2023-02-11T05:32:47;-3.00;38.80
6443;DHT22;3254;47.372;8.512;2023-02-11T05:35:15;-3.00;39.40
6443;DHT22;3254;47.372;8.512;2023-02-11T05:37:41;-3.10;38.80
6443;DHT22;3254;47.372;8.512;2023-02-11T05:40:07;-3.10;39.00
6443;DHT22;3254;47.372;8.512;2023-02-11T05:42:32;-3.10;39.90
6443;DHT22;3254;47.372;8.512;2023-02-11T05:44:58;-3.10;42.70
6443;DHT22;3254;47.372;8.512;2023-02-11T05:47:24;-3.10;43.40
6443;DHT22;3254;47.372;8.512;2023-02-11T05:49:50;-3.20;43.30
6443;DHT22;3254;47.372;8.512;2023-02-11T05:52:18;-3.20;44.40
6443;DHT22;3254;47.372;8.512;2023-02-11T05:54:44;-3.10;46.30
6443;DHT22;3254;47.372;8.512;2023-02-11T05:57:10;-3.00;46.30
6443;DHT22;3254;47.372;8.512;2023-02-11T05:59:35;-3.10;44.20
6443;DHT22;3254;47.372;8.512;2023-02-11T06:02:02;-3.00;44.50
6443;DHT22;3254;47.372;8.512;2023-02-11T06:04:28;-3.10;43.90
6443;DHT22;3254;47.372;8.512;2023-02-11T06:06:53;-3.00;44.50
6443;DHT22;3254;47.372;8.512;2023-02-11T06:09:19;-3.10;43.10
6443;DHT22;3254;47.372;8.512;2023-02-11T06:11:45;-3.20;42.90
6443;DHT22;3254;47.372;8.512;2023-02-11T06:14:10;-3.20;44.50
6443;DHT22;3254;47.372;8.512;2023-02-11T06:16:36;-3.10;45.70
6443;DHT22;3254;47.372;8.512;2023-02-11T06:19:02;-3.10;47.10
6443;DHT22;3254;47.372;8.512;2023-02-11T06:21:28;-3.10;47.30
6443;DHT22;3254;47.372;8.512;2023-02-11T06:23:53;-3.10;46.40
6443;DHT22;3254;47.372;8.512;2023-02-11T06:26:21;-3.00;44.90
6443;DHT22;3254;47.372;8.512;2023-02-11T06:28:47;-3.10;43.20
6443;DHT22;3254;47.372;8.512;2023-02-11T06:31:13;-3.20;43.40
6443;DHT22;3254;47.372;8.512;2023-02-11T06:33:39;-3.30;43.90
6443;DHT22;3254;47.372;8.512;2023-02-11T06:36:25;-3.30;45.30
6443;DHT22;3254;47.372;8.512;2023-02-11T06:38:51;-3.40;47.00
6443;DHT22;3254;47.372;8.512;2023-02-11T06:41:18;-3.40;48.00
6443;DHT22;3254;47.372;8.512;2023-02-11T06:43:47;-3.40;49.40
6443;DHT22;3254;47.372;8.512;2023-02-11T06:46:14;-3.40;51.50
6443;DHT22;3254;47.372;8.512;2023-02-11T06:48:40;-3.30;53.40
6443;DHT22;3254;47.372;8.512;2023-02-11T06:51:08;-3.30;54.30
6443;DHT22;3254;47.372;8.512;2023-02-11T06:53:37;-3.20;53.40
6443;DHT22;3254;47.372;8.512;2023-02-11T06:56:04;-3.30;51.20
6443;DHT22;3254;47.372;8.512;2023-02-11T06:58:33;-3.20;51.20
6443;DHT22;3254;47.372;8.512;2023-02-11T07:01:02;-3.20;52.80
6443;DHT22;3254;47.372;8.512;2023-02-11T07:03:28;-3.10;53.50
6443;DHT22;3254;47.372;8.512;2023-02-11T07:05:55;-3.10;51.30
6443;DHT22;3254;47.372;8.512;2023-02-11T07:08:20;-3.10;49.80
6443;DHT22;3254;47.372;8.512;2023-02-11T07:10:46;-3.10;51.10
6443;DHT22;3254;47.372;8.512;2023-02-11T07:13:13;-3.10;53.20
6443;DHT22;3254;47.372;8.512;2023-02-11T07:15:38;-3.10;53.70
6443;DHT22;3254;47.372;8.512;2023-02-11T07:18:04;-3.00;54.60
6443;DHT22;3254;47.372;8.512;2023-02-11T07:20:31;-3.00;54.00
6443;DHT22;3254;47.372;8.512;2023-02-11T07:22:57;-2.90;55.60
6443;DHT22;3254;47.372;8.512;2023-02-11T07:25:25;-2.80;54.10
6443;DHT22;3254;47.372;8.512;2023-02-11T07:27:51;-2.80;50.50
6443;DHT22;3254;47.372;8.512;2023-02-11T07:30:18;-2.80;49.80
6443;DHT22;3254;47.372;8.512;2023-02-11T07:32:44;-2.80;51.40
6443;DHT22;3254;47.372;8.512;2023-02-11T07:35:09;-2.70;52.40
6443;DHT22;3254;47.372;8.512;2023-02-11T07:37:38;-2.70;52.40
6443;DHT22;3254;47.372;8.512;2023-02-11T07:40:04;-2.50;52.00
6443;DHT22;3254;47.372;8.512;2023-02-11T07:42:29;-2.40;51.00
6443;DHT22;3254;47.372;8.512;2023-02-11T07:44:55;-2.30;48.20
6443;DHT22;3254;47.372;8.512;2023-02-11T07:47:21;-2.20;44.30
6443;DHT22;3254;47.372;8.512;2023-02-11T07:49:48;-2.20;40.80
6443;DHT22;3254;47.372;8.512;2023-02-11T07:52:14;-2.20;42.30
6443;DHT22;3254;47.372;8.512;2023-02-11T07:54:39;-2.10;45.90
6443;DHT22;3254;47.372;8.512;2023-02-11T07:57:06;-2.00;44.60
6443;DHT22;3254;47.372;8.512;2023-02-11T07:59:32;-1.90;37.40
6443;DHT22;3254;47.372;8.512;2023-02-11T08:01:58;-1.80;35.80
6443;DHT22;3254;47.372;8.512;2023-02-11T08:04:23;-1.80;32.20
6443;DHT22;3254;47.372;8.512;2023-02-11T08:06:50;-1.70;33.10
6443;DHT22;3254;47.372;8.512;2023-02-11T08:09:17;-1.70;29.70
6443;DHT22;3254;47.372;8.512;2023-02-11T08:11:49;-1.60;28.50
6443;DHT22;3254;47.372;8.512;2023-02-11T08:14:15;-1.60;27.70
6443;DHT22;3254;47.372;8.512;2023-02-11T08:16:44;-1.50;27.20
6443;DHT22;3254;47.372;8.512;2023-02-11T08:19:12;-1.40;25.50
6443;DHT22;3254;47.372;8.512;2023-02-11T08:21:39;-1.30;24.70
6443;DHT22;3254;47.372;8.512;2023-02-11T08:24:05;-1.20;23.10
6443;DHT22;3254;47.372;8.512;2023-02-11T08:26:34;-1.10;22.50
6443;DHT22;3254;47.372;8.512;2023-02-11T08:29:06;-0.90;21.00
6443;DHT22;3254;47.372;8.512;2023-02-11T08:31:37;-0.80;20.80
6443;DHT22;3254;47.372;8.512;2023-02-11T08:34:04;-0.60;20.80
6443;DHT22;3254;47.372;8.512;2023-02-11T08:36:32;-0.50;19.50
6443;DHT22;3254;47.372;8.512;2023-02-11T08:39:00;-0.30;19.50
6443;DHT22;3254;47.372;8.512;2023-02-11T08:41:32;-0.30;18.70
6443;DHT22;3254;47.372;8.512;2023-02-11T08:43:59;-0.20;17.20
6443;DHT22;3254;47.372;8.512;2023-02-11T08:46:25;0.00;17.00
6443;DHT22;3254;47.372;8.512;2023-02-11T08:48:50;0.30;14.80
6443;DHT22;3254;47.372;8.512;2023-02-11T08:51:27;0.70;13.50
6443;DHT22;3254;47.372;8.512;2023-02-11T08:53:55;1.00;8.40
6443;DHT22;3254;47.372;8.512;2023-02-11T08:56:21;1.40;4.60
6443;DHT22;3254;47.372;8.512;2023-02-11T08:58:52;1.50;1.00
6443;DHT22;3254;47.372;8.512;2023-02-11T09:01:21;1.70;1.00
6443;DHT22;3254;47.372;8.512;2023-02-11T09:03:48;1.70;1.00
6443;DHT22;3254;47.372;8.512;2023-02-11T09:06:15;1.90;1.00
6443;DHT22;3254;47.372;8.512;2023-02-11T09:08:46;2.10;1.00
6443;DHT22;3254;47.372;8.512;2023-02-11T09:11:12;2.30;1.00
6443;DHT22;3254;47.372;8.512;2023-02-11T09:13:40;2.50;1.00
6443;DHT22;3254;47.372;8.512;2023-02-11T09:16:06;3.00;1.00
6443;DHT22;3254;47.372;8.512;2023-02-11T09:18:32;3.30;1.00
6443;DHT22;3254;47.372;8.512;2023-02-11T09:21:06;3.80;1.00
6443;DHT22;3254;47.372;8.512;2023-02-11T09:23:32;4.00;1.00
6443;DHT22;3254;47.372;8.512;2023-02-11T09:26:11;3.90;1.00
6443;DHT22;3254;47.372;8.512;2023-02-11T09:28:37;4.00;1.00
6443;DHT22;3254;47.372;8.512;2023-02-11T09:31:07;3.60;1.00
6443;DHT22;3254;47.372;8.512;2023-02-11T09:33:35;4.20;1.00
6443;DHT22;3254;47.372;8.512;2023-02-11T09:36:04;5.00;1.00
6443;DHT22;3254;47.372;8.512;2023-02-11T09:38:30;6.10;1.00
6443;DHT22;3254;47.372;8.512;2023-02-11T09:40:58;6.40;1.00
6443;DHT22;3254;47.372;8.512;2023-02-11T09:43:37;6.70;1.00
6443;DHT22;3254;47.372;8.512;2023-02-11T09:46:13;7.50;1.00
6443;DHT22;3254;47.372;8.512;2023-02-11T09:48:40;8.30;1.00
6443;DHT22;3254;47.372;8.512;2023-02-11T09:51:18;9.00;1.00
6443;DHT22;3254;47.372;8.512;2023-02-11T09:53:50;9.70;1.00
6443;DHT22;3254;47.372;8.512;2023-02-11T09:56:21;10.40;1.00
6443;DHT22;3254;47.372;8.512;2023-02-11T09:58:47;9.80;1.00
6443;DHT22;3254;47.372;8.512;2023-02-11T10:01:39;9.10;1.00
6443;DHT22;3254;47.372;8.512;2023-02-11T10:15:36;7.70;1.00
6443;DHT22;3254;47.372;8.512;2023-02-11T10:23:44;7.80;1.00
6443;DHT22;3254;47.372;8.512;2023-02-11T10:26:16;7.80;1.00
6443;DHT22;3254;47.372;8.512;2023-02-11T10:28:48;7.50;1.00
6443;DHT22;3254;47.372;8.512;2023-02-11T10:31:20;7.60;1.00
6443;DHT22;3254;47.372;8.512;2023-02-11T10:34:08;8.20;1.00
6443;DHT22;3254;47.372;8.512;2023-02-11T10:36:36;8.10;1.00
6443;DHT22;3254;47.372;8.512;2023-02-11T10:39:24;8.00;1.00
6443;DHT22;3254;47.372;8.512;2023-02-11T10:41:53;9.10;1.00
6443;DHT22;3254;47.372;8.512;2023-02-11T10:44:53;10.00;1.00
6443;DHT22;3254;47.372;8.512;2023-02-11T10:47:24;10.20;1.00
6443;DHT22;3254;47.372;8.512;2023-02-11T10:49:51;9.50;1.00
6443;DHT22;3254;47.372;8.512;2023-02-11T10:52:23;9.50;1.00
6443;DHT22;3254;47.372;8.512;2023-02-11T10:55:13;9.00;1.00
6443;DHT22;3254;47.372;8.512;2023-02-11T11:02:56;7.20;1.00
6443;DHT22;3254;47.372;8.512;2023-02-11T11:05:54;7.10;1.00
6443;DHT22;3254;47.372;8.512;2023-02-11T11:08:23;6.80;1.00
6443;DHT22;3254;47.372;8.512;2023-02-11T11:11:05;6.90;1.00
6443;DHT22;3254;47.372;8.512;2023-02-11T11:13:34;7.00;1.00
6443;DHT22;3254;47.372;8.512;2023-02-11T11:18:47;7.90;1.00
6443;DHT22;3254;47.372;8.512;2023-02-11T11:21:27;7.90;1.00
6443;DHT22;3254;47.372;8.512;2023-02-11T11:23:57;8.20;1.00
6443;DHT22;3254;47.372;8.512;2023-02-11T11:26:41;8.40;1.00
6443;DHT22;3254;47.372;8.512;2023-02-11T11:32:29;8.70;1.00
6443;DHT22;3254;47.372;8.512;2023-02-11T11:35:02;8.60;1.00
6443;DHT22;3254;47.372;8.512;2023-02-11T11:37:33;8.30;1.00
6443;DHT22;3254;47.372;8.512;2023-02-11T11:45:37;8.70;1.00
6443;DHT22;3254;47.372;8.512;2023-02-11T11:48:21;8.80;1.00
6443;DHT22;3254;47.372;8.512;2023-02-11T11:51:03;9.00;1.00
6443;DHT22;3254;47.372;8.512;2023-02-11T11:56:24;10.00;1.00
6443;DHT22;3254;47.372;8.512;2023-02-11T11:58:50;11.10;1.00
6443;DHT22;3254;47.372;8.512;2023-02-11T12:07:44;13.80;1.00
6443;DHT22;3254;47.372;8.512;2023-02-11T12:10:33;14.20;1.00
6443;DHT22;3254;47.372;8.512;2023-02-11T12:15:42;15.10;1.00
6443;DHT22;3254;47.372;8.512;2023-02-11T12:26:55;16.20;1.00
6443;DHT22;3254;47.372;8.512;2023-02-11T12:38:31;17.10;1.00
6443;DHT22;3254;47.372;8.512;2023-02-11T12:43:43;17.10;1.00
6443;DHT22;3254;47.372;8.512;2023-02-11T12:46:41;17.10;1.00
6443;DHT22;3254;47.372;8.512;2023-02-11T12:49:35;17.10;1.00
6443;DHT22;3254;47.372;8.512;2023-02-11T12:54:55;17.00;1.00
6443;DHT22;3254;47.372;8.512;2023-02-11T12:57:24;16.90;1.00
6443;DHT22;3254;47.372;8.512;2023-02-11T13:06:21;17.20;1.00
6443;DHT22;3254;47.372;8.512;2023-02-11T13:08:31;17.50;1.00
6443;DHT22;3254;47.372;8.512;2023-02-11T13:11:04;17.80;1.00
6443;DHT22;3254;47.372;8.512;2023-02-11T13:13:38;17.80;1.00
6443;DHT22;3254;47.372;8.512;2023-02-11T13:24:42;18.50;1.00
6443;DHT22;3254;47.372;8.512;2023-02-11T13:36:09;17.90;1.00
6443;DHT22;3254;47.372;8.512;2023-02-11T13:38:36;18.10;1.00
6443;DHT22;3254;47.372;8.512;2023-02-11T13:41:03;18.50;1.00
6443;DHT22;3254;47.372;8.512;2023-02-11T13:43:33;18.50;1.00
6443;DHT22;3254;47.372;8.512;2023-02-11T13:46:26;18.20;1.00
6443;DHT22;3254;47.372;8.512;2023-02-11T13:48:54;18.10;1.00
6443;DHT22;3254;47.372;8.512;2023-02-11T13:51:41;17.70;1.00
6443;DHT22;3254;47.372;8.512;2023-02-11T13:54:17;17.50;1.00
6443;DHT22;3254;47.372;8.512;2023-02-11T13:56:44;17.40;1.00
6443;DHT22;3254;47.372;8.512;2023-02-11T14:02:02;18.20;1.00
6443;DHT22;3254;47.372;8.512;2023-02-11T14:10:52;17.10;1.00
6443;DHT22;3254;47.372;8.512;2023-02-11T14:26:58;17.70;1.00
6443;DHT22;3254;47.372;8.512;2023-02-11T14:29:55;17.80;1.00
6443;DHT22;3254;47.372;8.512;2023-02-11T14:38:08;18.20;1.00
6443;DHT22;3254;47.372;8.512;2023-02-11T14:43:37;16.20;1.00
6443;DHT22;3254;47.372;8.512;2023-02-11T14:46:04;16.00;1.00
6443;DHT22;3254;47.372;8.512;2023-02-11T14:48:33;16.30;1.00
6443;DHT22;3254;47.372;8.512;2023-02-11T14:51:06;16.70;1.00
6443;DHT22;3254;47.372;8.512;2023-02-11T14:53:33;17.30;1.00
6443;DHT22;3254;47.372;8.512;2023-02-11T14:55:59;17.50;1.00
6443;DHT22;3254;47.372;8.512;2023-02-11T14:58:31;17.60;1.00
6443;DHT22;3254;47.372;8.512;2023-02-11T15:03:55;18.20;1.00
6443;DHT22;3254;47.372;8.512;2023-02-11T15:06:28;18.60;1.00
6443;DHT22;3254;47.372;8.512;2023-02-11T15:09:19;18.40;1.00
6443;DHT22;3254;47.372;8.512;2023-02-11T15:11:50;18.50;1.00
6443;DHT22;3254;47.372;8.512;2023-02-11T15:14:26;18.60;1.00
6443;DHT22;3254;47.372;8.512;2023-02-11T15:16:53;18.80;1.00
6443;DHT22;3254;47.372;8.512;2023-02-11T15:19:33;18.80;1.00
6443;DHT22;3254;47.372;8.512;2023-02-11T15:22:04;18.40;1.00
6443;DHT22;3254;47.372;8.512;2023-02-11T15:24:33;17.90;1.00
6443;DHT22;3254;47.372;8.512;2023-02-11T15:27:10;17.80;1.00
6443;DHT22;3254;47.372;8.512;2023-02-11T15:29:43;18.10;1.00
6443;DHT22;3254;47.372;8.512;2023-02-11T15:32:13;17.80;1.00
6443;DHT22;3254;47.372;8.512;2023-02-11T15:34:40;17.70;1.00
6443;DHT22;3254;47.372;8.512;2023-02-11T15:37:21;17.30;1.00
6443;DHT22;3254;47.372;8.512;2023-02-11T15:39:48;17.20;1.00
6443;DHT22;3254;47.372;8.512;2023-02-11T15:42:23;17.50;1.00
6443;DHT22;3254;47.372;8.512;2023-02-11T15:45:06;16.90;1.00
6443;DHT22;3254;47.372;8.512;2023-02-11T15:47:34;15.80;1.00
6443;DHT22;3254;47.372;8.512;2023-02-11T15:50:01;14.80;1.00
6443;DHT22;3254;47.372;8.512;2023-02-11T15:52:28;14.10;1.00
6443;DHT22;3254;47.372;8.512;2023-02-11T15:54:55;13.20;1.00
6443;DHT22;3254;47.372;8.512;2023-02-11T15:57:25;12.40;1.00
6443;DHT22;3254;47.372;8.512;2023-02-11T15:59:56;11.80;1.00
6443;DHT22;3254;47.372;8.512;2023-02-11T16:02:33;11.40;1.00
6443;DHT22;3254;47.372;8.512;2023-02-11T16:05:08;11.20;1.00
6443;DHT22;3254;47.372;8.512;2023-02-11T16:07:44;10.90;1.00
6443;DHT22;3254;47.372;8.512;2023-02-11T16:10:37;10.60;1.00
6443;DHT22;3254;47.372;8.512;2023-02-11T16:18:11;9.90;1.00
6443;DHT22;3254;47.372;8.512;2023-02-11T16:20:37;9.70;1.00
6443;DHT22;3254;47.372;8.512;2023-02-11T16:23:05;9.50;1.00
6443;DHT22;3254;47.372;8.512;2023-02-11T16:25:34;9.20;1.00
6443;DHT22;3254;47.372;8.512;2023-02-11T16:28:00;9.00;1.00
6443;DHT22;3254;47.372;8.512;2023-02-11T16:30:35;8.80;1.00
6443;DHT22;3254;47.372;8.512;2023-02-11T16:33:02;8.60;1.00
6443;DHT22;3254;47.372;8.512;2023-02-11T16:35:31;8.40;1.00
6443;DHT22;3254;47.372;8.512;2023-02-11T16:37:56;8.20;1.00
6443;DHT22;3254;47.372;8.512;2023-02-11T16:40:22;7.90;1.00
6443;DHT22;3254;47.372;8.512;2023-02-11T16:42:49;7.80;1.00
6443;DHT22;3254;47.372;8.512;2023-02-11T16:45:17;7.60;1.00
6443;DHT22;3254;47.372;8.512;2023-02-11T16:47:44;7.40;1.00
6443;DHT22;3254;47.372;8.512;2023-02-11T16:50:21;7.30;1.00
6443;DHT22;3254;47.372;8.512;2023-02-11T16:52:48;7.10;1.00
6443;DHT22;3254;47.372;8.512;2023-02-11T16:55:13;6.90;1.00
6443;DHT22;3254;47.372;8.512;2023-02-11T16:57:40;6.90;1.00
6443;DHT22;3254;47.372;8.512;2023-02-11T17:00:09;6.70;1.00
6443;DHT22;3254;47.372;8.512;2023-02-11T17:02:36;6.50;1.00
6443;DHT22;3254;47.372;8.512;2023-02-11T17:05:06;6.30;1.00
6443;DHT22;3254;47.372;8.512;2023-02-11T17:07:32;6.30;1.00
6443;DHT22;3254;47.372;8.512;2023-02-11T17:09:57;6.10;1.00
6443;DHT22;3254;47.372;8.512;2023-02-11T17:12:24;6.10;1.00
6443;DHT22;3254;47.372;8.512;2023-02-11T17:14:53;5.90;1.00
6443;DHT22;3254;47.372;8.512;2023-02-11T17:17:18;5.80;1.00
6443;DHT22;3254;47.372;8.512;2023-02-11T17:19:48;5.80;1.00
6443;DHT22;3254;47.372;8.512;2023-02-11T17:22:15;5.70;1.00
6443;DHT22;3254;47.372;8.512;2023-02-11T17:24:41;5.60;1.00
6443;DHT22;3254;47.372;8.512;2023-02-11T17:27:08;5.50;1.00
6443;DHT22;3254;47.372;8.512;2023-02-11T17:29:35;5.40;1.00
6443;DHT22;3254;47.372;8.512;2023-02-11T17:32:01;5.30;1.00
6443;DHT22;3254;47.372;8.512;2023-02-11T17:34:27;5.20;1.00
6443;DHT22;3254;47.372;8.512;2023-02-11T17:36:54;5.10;1.00
6443;DHT22;3254;47.372;8.512;2023-02-11T17:39:19;5.00;1.00
6443;DHT22;3254;47.372;8.512;2023-02-11T17:41:45;4.90;1.00
6443;DHT22;3254;47.372;8.512;2023-02-11T17:44:11;4.80;1.00
6443;DHT22;3254;47.372;8.512;2023-02-11T17:46:38;4.80;1.00
6443;DHT22;3254;47.372;8.512;2023-02-11T17:49:08;4.70;1.00
6443;DHT22;3254;47.372;8.512;2023-02-11T17:51:36;4.60;1.00
6443;DHT22;3254;47.372;8.512;2023-02-11T17:54:09;4.60;1.00
6443;DHT22;3254;47.372;8.512;2023-02-11T17:56:36;4.50;1.00
6443;DHT22;3254;47.372;8.512;2023-02-11T17:59:02;4.40;1.00
6443;DHT22;3254;47.372;8.512;2023-02-11T18:01:30;4.30;1.00
6443;DHT22;3254;47.372;8.512;2023-02-11T18:03:56;4.20;1.00
6443;DHT22;3254;47.372;8.512;2023-02-11T18:06:22;4.10;1.00
6443;DHT22;3254;47.372;8.512;2023-02-11T18:08:49;4.00;1.00
6443;DHT22;3254;47.372;8.512;2023-02-11T18:11:17;3.90;1.00
6443;DHT22;3254;47.372;8.512;2023-02-11T18:13:45;3.90;1.00
6443;DHT22;3254;47.372;8.512;2023-02-11T18:16:21;3.80;1.00
6443;DHT22;3254;47.372;8.512;2023-02-11T18:18:47;3.70;1.00
6443;DHT22;3254;47.372;8.512;2023-02-11T18:21:17;3.70;1.00
6443;DHT22;3254;47.372;8.512;2023-02-11T18:23:44;3.60;1.00
6443;DHT22;3254;47.372;8.512;2023-02-11T18:26:11;3.60;1.00
6443;DHT22;3254;47.372;8.512;2023-02-11T18:28:38;3.60;1.00
6443;DHT22;3254;47.372;8.512;2023-02-11T18:31:05;3.50;1.00
6443;DHT22;3254;47.372;8.512;2023-02-11T18:33:31;3.40;1.00
6443;DHT22;3254;47.372;8.512;2023-02-11T18:35:58;3.40;1.00
6443;DHT22;3254;47.372;8.512;2023-02-11T18:38:25;3.40;1.00
6443;DHT22;3254;47.372;8.512;2023-02-11T18:40:51;3.40;1.00
6443;DHT22;3254;47.372;8.512;2023-02-11T18:43:18;3.30;1.00
6443;DHT22;3254;47.372;8.512;2023-02-11T18:45:47;3.20;1.00
6443;DHT22;3254;47.372;8.512;2023-02-11T18:48:14;3.10;1.00
6443;DHT22;3254;47.372;8.512;2023-02-11T18:50:44;3.10;1.00
6443;DHT22;3254;47.372;8.512;2023-02-11T18:53:11;2.90;1.00
6443;DHT22;3254;47.372;8.512;2023-02-11T18:55:38;2.80;1.00
6443;DHT22;3254;47.372;8.512;2023-02-11T18:58:05;2.70;1.00
6443;DHT22;3254;47.372;8.512;2023-02-11T19:00:31;2.60;1.00
6443;DHT22;3254;47.372;8.512;2023-02-11T19:03:01;2.50;1.00
6443;DHT22;3254;47.372;8.512;2023-02-11T19:05:29;2.40;1.00
6443;DHT22;3254;47.372;8.512;2023-02-11T19:07:59;2.30;1.00
6443;DHT22;3254;47.372;8.512;2023-02-11T19:10:26;2.30;1.00
6443;DHT22;3254;47.372;8.512;2023-02-11T19:12:53;2.20;1.00
6443;DHT22;3254;47.372;8.512;2023-02-11T19:15:21;2.20;1.00
6443;DHT22;3254;47.372;8.512;2023-02-11T19:17:48;2.10;1.00
6443;DHT22;3254;47.372;8.512;2023-02-11T19:20:17;2.00;1.00
6443;DHT22;3254;47.372;8.512;2023-02-11T19:22:44;1.90;1.00
6443;DHT22;3254;47.372;8.512;2023-02-11T19:25:13;1.90;1.00
6443;DHT22;3254;47.372;8.512;2023-02-11T19:27:38;1.90;1.00
6443;DHT22;3254;47.372;8.512;2023-02-11T19:30:08;1.90;1.00